Time;durP1;ratioP1;P1;durP2;ratioP2;P2;SDS_P1;SDS_P2;PMS_P1;PMS_P2;Temp;Humidity;BMP_temperature;BMP_pressure;BME280_temperature;BME280_humidity;BME280_pressure;Samples;Min_cycle;Max_cycle;Signal;HPM_P1;HPM_P2
2022/08/04 00:02:18;;;;;;;0.00;0.00;;;22.40;99.90;;;;;;5019115;28;20574;-67
2022/08/04 00:04:55;;;;;;;0.00;0.00;;;22.30;99.90;;;;;;5018646;28;20478;-68
2022/08/04 00:07:26;;;;;;;0.00;0.00;;;22.30;99.90;;;;;;5018370;28;20746;-68
2022/08/04 00:10:16;;;;;;;0.00;0.00;;;22.20;99.90;;;;;;5018600;28;20841;-69
2022/08/04 00:12:48;;;;;;;0.00;0.00;;;22.20;99.90;;;;;;5018941;28;20700;-69
2022/08/04 00:15:17;;;;;;;0.00;0.00;;;22.10;99.90;;;;;;5018211;28;20991;-68
2022/08/04 00:17:48;;;;;;;0.00;0.00;;;22.10;99.90;;;;;;5018007;28;20468;-68
2022/08/04 00:20:20;;;;;;;0.00;0.00;;;22.00;99.90;;;;;;5018689;28;20444;-68
2022/08/04 00:22:48;;;;;;;0.00;0.00;;;22.00;99.90;;;;;;5018169;28;20474;-68
2022/08/04 00:25:19;;;;;;;0.00;0.00;;;22.00;99.90;;;;;;5018553;28;20511;-68
2022/08/04 00:27:47;;;;;;;0.00;0.00;;;22.00;99.90;;;;;;5018208;28;21010;-68
2022/08/04 00:30:15;;;;;;;0.00;0.00;;;22.00;99.90;;;;;;5018073;28;21057;-69
2022/08/04 00:32:43;;;;;;;0.00;0.00;;;21.90;99.90;;;;;;5018288;28;20535;-68
2022/08/04 00:35:14;;;;;;;0.00;0.00;;;22.00;99.90;;;;;;5018100;28;20470;-69
2022/08/04 00:37:44;;;;;;;0.00;0.00;;;21.90;99.90;;;;;;5018490;28;20457;-68
2022/08/04 00:40:32;;;;;;;0.00;0.00;;;21.90;99.90;;;;;;5018182;28;20609;-69
2022/08/04 00:43:10;;;;;;;0.00;0.00;;;21.90;99.90;;;;;;5018262;28;20478;-68
2022/08/04 00:46:10;;;;;;;0.00;0.00;;;21.90;99.90;;;;;;5018507;28;20603;-68
2022/08/04 00:49:24;;;;;;;0.00;0.00;;;21.90;99.90;;;;;;5002401;28;20486;-68
2022/08/04 00:52:01;;;;;;;0.00;0.00;;;21.80;99.90;;;;;;4937434;29;20471;-69
2022/08/04 00:55:08;;;;;;;0.00;0.00;;;21.80;99.90;;;;;;4937744;29;20445;-68
2022/08/04 00:57:59;;;;;;;0.00;0.00;;;21.70;99.90;;;;;;5000179;28;20633;-68
2022/08/04 01:00:32;;;;;;;0.00;0.00;;;21.70;99.90;;;;;;5015962;28;20454;-68
2022/08/04 01:03:12;;;;;;;0.00;0.00;;;21.70;99.90;;;;;;5019296;28;20467;-68
2022/08/04 01:05:52;;;;;;;0.00;0.00;;;21.70;99.90;;;;;;5018957;28;20623;-69
2022/08/04 01:08:48;;;;;;;0.00;0.00;;;21.70;99.90;;;;;;5018474;28;20773;-68
2022/08/04 01:11:31;;;;;;;0.00;0.00;;;21.70;99.90;;;;;;5018071;28;20468;-68
2022/08/04 01:14:33;;;;;;;0.00;0.00;;;21.60;99.90;;;;;;5018297;28;20624;-68
2022/08/04 01:17:15;;;;;;;0.00;0.00;;;21.50;99.90;;;;;;5018167;28;20441;-68
2022/08/04 01:19:54;;;;;;;0.00;0.00;;;21.60;99.90;;;;;;5018183;28;20934;-68
2022/08/04 01:22:51;;;;;;;0.00;0.00;;;21.50;99.90;;;;;;5017672;28;20479;-68
2022/08/04 01:25:40;;;;;;;0.00;0.00;;;21.50;99.90;;;;;;5018221;28;20564;-66
2022/08/04 01:28:28;;;;;;;0.00;0.00;;;21.50;99.90;;;;;;5018168;28;20513;-66
2022/08/04 01:31:04;;;;;;;0.00;0.00;;;21.50;99.90;;;;;;5021341;28;20928;-68
2022/08/04 01:33:36;;;;;;;0.00;0.00;;;21.50;99.90;;;;;;5021706;28;20596;-67
2022/08/04 01:36:25;;;;;;;0.00;0.00;;;21.40;99.90;;;;;;5021231;28;20821;-68
2022/08/04 01:38:54;;;;;;;0.00;0.00;;;21.40;99.90;;;;;;5020967;28;20485;-67
2022/08/04 01:41:24;;;;;;;0.00;0.00;;;21.40;99.90;;;;;;5021222;28;20767;-67
2022/08/04 01:44:02;;;;;;;0.00;0.00;;;21.30;99.90;;;;;;5021270;28;20956;-67
2022/08/04 01:46:34;;;;;;;0.00;0.00;;;21.30;99.90;;;;;;5021369;28;20802;-67
2022/08/04 01:49:03;;;;;;;0.00;0.00;;;21.30;99.90;;;;;;5029013;28;21012;-67
2022/08/04 01:51:34;;;;;;;0.00;0.00;;;21.30;99.90;;;;;;5027976;28;20536;-67
2022/08/04 01:54:02;;;;;;;0.00;0.00;;;21.30;99.90;;;;;;5021231;28;20433;-67
2022/08/04 01:56:30;;;;;;;0.00;0.00;;;21.20;99.90;;;;;;5021191;28;20445;-67
2022/08/04 01:59:02;;;;;;;0.00;0.00;;;21.20;99.90;;;;;;5020911;28;20458;-67
2022/08/04 02:01:36;;;;;;;0.00;0.00;;;21.20;99.90;;;;;;5020919;28;20551;-67
2022/08/04 02:04:04;;;;;;;0.00;0.00;;;21.20;99.90;;;;;;5021105;28;20862;-67
2022/08/04 02:07:00;;;;;;;0.00;0.00;;;21.20;99.90;;;;;;5021103;28;20461;-67
2022/08/04 02:09:37;;;;;;;0.00;0.00;;;21.20;99.90;;;;;;5020439;28;20485;-67
2022/08/04 02:12:31;;;;;;;0.00;0.00;;;21.10;99.90;;;;;;5020852;28;20511;-67
2022/08/04 02:15:10;;;;;;;0.00;0.00;;;21.10;99.90;;;;;;5024453;28;20440;-67
2022/08/04 02:21:03;;;;;;;0.00;0.00;;;21.10;99.90;;;;;;5935331;22;20909;-67
2022/08/04 02:23:39;;;;;;;0.00;0.00;;;21.00;99.90;;;;;;5026895;28;20445;-66
2022/08/04 02:26:13;;;;;;;0.00;0.00;;;21.00;99.90;;;;;;5022580;28;20868;-67
2022/08/04 02:29:03;;;;;;;0.00;0.00;;;21.00;99.90;;;;;;5023360;28;20480;-67
2022/08/04 02:31:33;;;;;;;0.00;0.00;;;20.90;99.90;;;;;;5020219;28;20440;-67
2022/08/04 02:34:08;;;;;;;0.00;0.00;;;20.90;99.90;;;;;;5020442;28;20438;-67
2022/08/04 02:36:39;;;;;;;0.00;0.00;;;20.90;99.90;;;;;;5020280;28;20455;-67
2022/08/04 02:39:10;;;;;;;0.00;0.00;;;20.90;99.90;;;;;;5019853;28;20457;-67
2022/08/04 02:41:39;;;;;;;0.00;0.00;;;20.90;99.90;;;;;;5019697;28;20536;-67
2022/08/04 02:44:09;;;;;;;0.00;0.00;;;20.90;99.90;;;;;;5019881;28;20459;-67
2022/08/04 02:46:39;;;;;;;0.00;0.00;;;20.90;99.90;;;;;;5019743;28;20579;-67
2022/08/04 02:49:09;;;;;;;0.00;0.00;;;20.90;99.90;;;;;;5019679;28;20476;-65
2022/08/04 02:51:41;;;;;;;0.00;0.00;;;20.80;99.90;;;;;;5019684;28;20748;-65
2022/08/04 02:54:10;;;;;;;0.00;0.00;;;20.80;99.90;;;;;;5019955;28;20792;-66
2022/08/04 02:56:39;;;;;;;0.00;0.00;;;20.80;99.90;;;;;;5019594;28;20441;-66
2022/08/04 02:59:08;;;;;;;0.00;0.00;;;20.70;99.90;;;;;;5019272;28;20982;-66
2022/08/04 03:01:36;;;;;;;0.00;0.00;;;20.70;99.90;;;;;;5019442;28;20838;-66
2022/08/04 03:04:41;;;;;;;0.00;0.00;;;20.70;99.90;;;;;;5020002;28;20444;-65
2022/08/04 03:07:39;;;;;;;0.00;0.00;;;20.70;99.90;;;;;;5019278;28;20445;-65
2022/08/04 03:10:23;;;;;;;0.00;0.00;;;20.60;99.90;;;;;;5019392;28;20480;-65
2022/08/04 03:13:35;;;;;;;0.00;0.00;;;20.60;99.90;;;;;;5019374;28;20452;-65
2022/08/04 03:16:35;;;;;;;0.00;0.00;;;20.60;99.90;;;;;;5019336;28;20449;-65
2022/08/04 03:19:36;;;;;;;0.00;0.00;;;20.60;99.90;;;;;;4987149;28;20583;-66
2022/08/04 03:22:37;;;;;;;0.00;0.00;;;20.50;99.90;;;;;;5019327;28;20449;-65
2022/08/04 03:25:53;;;;;;;0.00;0.00;;;20.50;99.90;;;;;;5018724;28;20991;-65
2022/08/04 03:28:59;;;;;;;0.00;0.00;;;20.50;99.90;;;;;;5019052;28;20461;-65
2022/08/04 03:31:54;;;;;;;0.00;0.00;;;20.40;99.90;;;;;;5019295;28;20447;-65
2022/08/04 03:34:36;;;;;;;0.00;0.00;;;20.40;99.90;;;;;;5019163;28;20521;-65
2022/08/04 03:37:29;;;;;;;0.00;0.00;;;20.40;99.90;;;;;;5018820;28;20433;-66
2022/08/04 03:40:44;;;;;;;0.00;0.00;;;20.40;99.90;;;;;;5018692;28;20429;-66
2022/08/04 03:43:47;;;;;;;0.00;0.00;;;20.40;99.90;;;;;;4937815;29;20834;-66
2022/08/04 03:46:44;;;;;;;0.00;0.00;;;20.30;99.90;;;;;;4937837;29;20531;-66
2022/08/04 03:49:53;;;;;;;0.00;0.00;;;20.30;99.90;;;;;;5017180;28;20765;-66
2022/08/04 03:53:08;;;;;;;0.00;0.00;;;20.30;99.90;;;;;;5009510;28;20477;-67
2022/08/04 03:56:09;;;;;;;0.00;0.00;;;20.30;99.90;;;;;;5008412;28;20721;-66
2022/08/04 03:59:07;;;;;;;0.00;0.00;;;20.20;99.90;;;;;;4985283;28;20457;-66
2022/08/04 04:02:05;;;;;;;0.00;0.00;;;20.20;99.90;;;;;;5018233;28;20674;-67
2022/08/04 04:05:03;;;;;;;0.00;0.00;;;20.10;99.90;;;;;;5018646;28;20602;-67
2022/08/04 04:08:00;;;;;;;0.00;0.00;;;20.10;99.90;;;;;;5001835;28;20651;-66
2022/08/04 04:11:00;;;;;;;0.00;0.00;;;20.20;99.90;;;;;;5018062;28;20674;-66
2022/08/04 04:13:56;;;;;;;0.00;0.00;;;20.20;99.90;;;;;;5018662;28;20484;-66
2022/08/04 04:16:37;;;;;;;0.00;0.00;;;20.10;99.90;;;;;;5018414;28;20448;-66
2022/08/04 04:19:33;;;;;;;0.00;0.00;;;20.20;99.90;;;;;;5018211;28;21071;-66
2022/08/04 04:22:17;;;;;;;0.00;0.00;;;20.20;99.90;;;;;;5017503;28;20457;-66
2022/08/04 04:24:59;;;;;;;0.00;0.00;;;20.20;99.90;;;;;;5018250;28;20457;-66
2022/08/04 04:27:39;;;;;;;0.00;0.00;;;20.30;99.90;;;;;;5018187;28;20476;-66
2022/08/04 04:30:12;;;;;;;0.00;0.00;;;20.30;99.90;;;;;;5017849;28;20505;-66
2022/08/04 04:33:02;;;;;;;0.00;0.00;;;20.30;99.90;;;;;;5018728;28;20733;-66
2022/08/04 04:35:38;;;;;;;0.00;0.00;;;20.40;99.90;;;;;;5018387;28;20472;-66
2022/08/04 04:38:29;;;;;;;0.00;0.00;;;20.40;99.90;;;;;;5018662;28;20457;-66
2022/08/04 04:41:08;;;;;;;0.00;0.00;;;20.50;99.90;;;;;;5017827;28;20986;-66
2022/08/04 04:44:11;;;;;;;0.00;0.00;;;20.60;99.90;;;;;;5017861;28;20468;-66
2022/08/04 04:46:48;;;;;;;0.00;0.00;;;20.60;99.90;;;;;;5017908;28;20440;-66
2022/08/04 04:49:25;;;;;;;0.00;0.00;;;20.60;99.90;;;;;;5017154;28;20452;-66
2022/08/04 04:52:03;;;;;;;0.00;0.00;;;20.70;99.90;;;;;;5017534;28;20455;-66
2022/08/04 04:54:35;;;;;;;0.00;0.00;;;20.70;99.90;;;;;;5018045;28;20555;-66
2022/08/04 04:57:13;;;;;;;0.00;0.00;;;20.80;99.90;;;;;;5017614;28;20442;-66
2022/08/04 04:59:48;;;;;;;0.00;0.00;;;20.80;99.90;;;;;;5017392;28;20851;-66
2022/08/04 05:02:41;;;;;;;0.00;0.00;;;20.90;99.90;;;;;;5018928;28;20443;-66
2022/08/04 05:05:25;;;;;;;0.00;0.00;;;21.00;99.90;;;;;;5021865;28;20472;-66
2022/08/04 05:08:24;;;;;;;0.00;0.00;;;21.00;99.90;;;;;;5021202;28;20468;-66
2022/08/04 05:11:42;;;;;;;0.00;0.00;;;21.10;99.90;;;;;;5021277;28;21017;-66
2022/08/04 05:14:14;;;;;;;0.00;0.00;;;21.10;99.90;;;;;;5021838;28;20878;-66
2022/08/04 05:17:05;;;;;;;0.00;0.00;;;21.20;99.90;;;;;;5021418;28;20943;-66
2022/08/04 05:19:49;;;;;;;0.00;0.00;;;21.30;99.90;;;;;;5021476;28;20937;-66
2022/08/04 05:22:22;;;;;;;0.00;0.00;;;21.40;99.90;;;;;;5020575;28;20458;-66
2022/08/04 05:25:00;;;;;;;0.00;0.00;;;21.40;99.90;;;;;;5021120;28;20485;-66
2022/08/04 05:27:34;;;;;;;0.00;0.00;;;21.50;99.90;;;;;;5021692;28;20468;-66
2022/08/04 05:30:08;;;;;;;0.00;0.00;;;21.60;99.90;;;;;;5021361;28;20481;-66
2022/08/04 05:32:45;;;;;;;0.00;0.00;;;21.70;99.90;;;;;;5021799;28;20477;-66
2022/08/04 05:35:24;;;;;;;0.00;0.00;;;21.80;99.90;;;;;;5022305;28;20716;-66
2022/08/04 05:38:16;;;;;;;0.00;0.00;;;21.90;99.90;;;;;;5021363;28;20462;-66
2022/08/04 05:40:45;;;;;;;0.00;0.00;;;21.90;99.90;;;;;;5020993;28;20591;-66
2022/08/04 05:43:14;;;;;;;0.00;0.00;;;22.00;99.90;;;;;;5021309;28;20877;-67
2022/08/04 05:45:43;;;;;;;0.00;0.00;;;22.10;99.90;;;;;;5020914;28;20457;-66
2022/08/04 05:48:12;;;;;;;0.00;0.00;;;22.20;99.90;;;;;;5021578;28;20830;-66
2022/08/04 05:50:41;;;;;;;0.00;0.00;;;22.40;99.90;;;;;;5020712;28;20984;-66
2022/08/04 05:53:11;;;;;;;0.00;0.00;;;22.50;99.90;;;;;;5021246;28;20558;-68
2022/08/04 05:55:46;;;;;;;0.00;0.00;;;22.60;99.90;;;;;;5021436;28;20681;-67
2022/08/04 05:58:29;;;;;;;0.00;0.00;;;22.80;99.90;;;;;;5021321;28;20474;-66
2022/08/04 06:03:55;;;;;;;0.00;0.00;;;23.00;99.90;;;;;;5006568;28;20916;-68
2022/08/04 06:06:28;;;;;;;0.00;0.00;;;23.20;99.90;;;;;;5020861;28;20448;-66
2022/08/04 06:08:56;;;;;;;0.00;0.00;;;23.30;99.90;;;;;;5020706;28;20469;-65
2022/08/04 06:11:27;;;;;;;0.00;0.00;;;23.40;99.90;;;;;;5022580;28;20572;-66
2022/08/04 06:13:59;;;;;;;0.00;0.00;;;23.50;99.90;;;;;;5027933;28;20549;-66
2022/08/04 06:16:34;;;;;;;0.00;0.00;;;23.60;99.90;;;;;;5020214;28;20651;-66
2022/08/04 06:19:07;;;;;;;0.00;0.00;;;23.70;99.90;;;;;;5020957;28;20624;-66
2022/08/04 06:22:00;;;;;;;0.00;0.00;;;23.80;99.90;;;;;;5020266;28;20462;-66
2022/08/04 06:24:30;;;;;;;0.00;0.00;;;23.90;99.90;;;;;;5019814;28;20450;-66
2022/08/04 06:26:59;;;;;;;0.00;0.00;;;23.90;99.90;;;;;;5019637;28;20597;-66
2022/08/04 06:29:33;;;;;;;0.00;0.00;;;23.90;99.90;;;;;;5019644;28;20442;-66
2022/08/04 06:32:12;;;;;;;0.00;0.00;;;24.00;99.90;;;;;;5019871;28;20618;-66
2022/08/04 06:35:01;;;;;;;0.00;0.00;;;24.00;99.90;;;;;;5019798;28;20450;-67
2022/08/04 06:37:31;;;;;;;0.00;0.00;;;24.00;99.90;;;;;;5019537;28;20462;-66
2022/08/04 06:40:12;;;;;;;0.00;0.00;;;24.10;99.90;;;;;;5019632;28;20582;-66
2022/08/04 06:43:00;;;;;;;0.00;0.00;;;24.20;99.90;;;;;;5019573;28;20451;-66
2022/08/04 06:45:29;;;;;;;0.00;0.00;;;24.30;99.90;;;;;;5020036;28;20444;-66
2022/08/04 06:47:58;;;;;;;0.00;0.00;;;24.30;99.90;;;;;;5019673;28;20824;-66
2022/08/04 06:50:26;;;;;;;0.00;0.00;;;24.40;99.90;;;;;;5019280;28;20871;-66
2022/08/04 06:53:16;;;;;;;0.00;0.00;;;24.50;99.90;;;;;;5019869;28;20432;-66
2022/08/04 06:55:46;;;;;;;0.00;0.00;;;24.60;99.90;;;;;;5019516;28;20443;-65
2022/08/04 06:58:16;;;;;;;0.00;0.00;;;24.70;99.90;;;;;;5019662;28;20781;-65
2022/08/04 07:00:46;;;;;;;0.00;0.00;;;24.80;99.90;;;;;;5019168;28;20443;-66
2022/08/04 07:03:15;;;;;;;0.00;0.00;;;24.90;99.90;;;;;;5019580;28;20840;-66
2022/08/04 07:05:46;;;;;;;0.00;0.00;;;25.00;99.90;;;;;;5019129;28;20535;-67
2022/08/04 07:08:15;;;;;;;0.00;0.00;;;25.10;99.90;;;;;;5019070;28;20975;-67
2022/08/04 07:10:45;;;;;;;0.00;0.00;;;25.20;99.90;;;;;;5018627;28;20844;-67
2022/08/04 07:13:14;;;;;;;0.00;0.00;;;25.30;99.90;;;;;;5018989;28;20651;-67
2022/08/04 07:15:44;;;;;;;0.00;0.00;;;25.30;99.90;;;;;;5018788;28;21021;-66
2022/08/04 07:18:12;;;;;;;0.00;0.00;;;25.40;99.90;;;;;;5018701;28;20612;-67
2022/08/04 07:20:42;;;;;;;0.00;0.00;;;25.50;99.90;;;;;;5018506;28;20435;-67
2022/08/04 07:23:12;;;;;;;0.00;0.00;;;25.70;99.90;;;;;;5018618;28;21107;-67
2022/08/04 07:25:43;;;;;;;0.00;0.00;;;25.90;99.90;;;;;;5019098;28;20459;-67
2022/08/04 07:28:31;;;;;;;0.00;0.00;;;26.10;99.90;;;;;;5018829;28;21019;-67
2022/08/04 07:30:59;;;;;;;0.00;0.00;;;26.20;99.90;;;;;;5018031;28;21112;-67
2022/08/04 07:33:28;;;;;;;0.00;0.00;;;26.40;99.90;;;;;;5018581;28;20450;-67
2022/08/04 07:35:58;;;;;;;0.00;0.00;;;26.50;99.90;;;;;;5018112;28;20805;-67
2022/08/04 07:38:38;;;;;;;0.00;0.00;;;26.60;99.90;;;;;;5018344;28;20466;-67
2022/08/04 07:41:22;;;;;;;0.00;0.00;;;26.70;99.90;;;;;;5018448;28;20434;-67
2022/08/04 07:44:06;;;;;;;0.00;0.00;;;26.80;99.90;;;;;;5018648;28;20470;-67
2022/08/04 07:46:34;;;;;;;0.00;0.00;;;26.80;99.90;;;;;;5018444;28;20508;-68
2022/08/04 07:49:03;;;;;;;0.00;0.00;;;26.90;99.90;;;;;;5018320;28;20464;-67
2022/08/04 07:51:34;;;;;;;0.00;0.00;;;27.00;99.90;;;;;;5017901;28;20480;-67
2022/08/04 07:54:03;;;;;;;0.00;0.00;;;27.10;99.90;;;;;;5018089;28;20801;-67
2022/08/04 07:56:35;;;;;;;0.00;0.00;;;27.20;99.90;;;;;;5018181;28;20503;-67
2022/08/04 07:59:03;;;;;;;0.00;0.00;;;27.30;99.90;;;;;;5017432;28;20566;-67
2022/08/04 08:01:32;;;;;;;0.00;0.00;;;27.40;99.90;;;;;;5018209;28;20803;-67
2022/08/04 08:04:01;;;;;;;0.00;0.00;;;27.50;99.90;;;;;;5018014;28;20530;-65
2022/08/04 08:06:29;;;;;;;0.00;0.00;;;27.60;99.90;;;;;;5021172;28;20867;-67
2022/08/04 08:09:08;;;;;;;0.00;0.00;;;27.70;99.90;;;;;;5021454;28;20531;-67
2022/08/04 08:11:42;;;;;;;0.00;0.00;;;27.90;99.90;;;;;;5017682;28;20482;-66
2022/08/04 08:14:31;;;;;;;0.00;0.00;;;28.00;99.90;;;;;;5018029;28;20443;-68
2022/08/04 08:17:01;;;;;;;0.00;0.00;;;28.10;99.90;;;;;;5017958;28;20727;-66
2022/08/04 08:19:29;;;;;;;0.00;0.00;;;28.20;99.90;;;;;;5017914;28;20443;-65
2022/08/04 08:21:57;;;;;;;0.00;0.00;;;28.30;99.90;;;;;;5017274;28;20752;-66
2022/08/04 08:24:29;;;;;;;0.00;0.00;;;28.40;99.90;;;;;;5017576;28;20458;-66
2022/08/04 08:26:58;;;;;;;0.00;0.00;;;28.50;99.90;;;;;;5017703;28;20455;-66
2022/08/04 08:29:28;;;;;;;0.00;0.00;;;28.70;99.90;;;;;;5018032;28;20432;-66
2022/08/04 08:31:57;;;;;;;0.00;0.00;;;28.80;99.90;;;;;;5018049;28;20475;-66
2022/08/04 08:34:33;;;;;;;0.00;0.00;;;29.00;99.90;;;;;;5018082;28;20628;-66
2022/08/04 08:37:09;;;;;;;0.00;0.00;;;29.20;99.90;;;;;;5017070;28;20445;-66
2022/08/04 08:39:42;;;;;;;0.00;0.00;;;29.30;99.90;;;;;;5017716;28;20441;-66
2022/08/04 08:42:43;;;;;;;0.00;0.00;;;29.50;99.90;;;;;;5017845;28;20448;-66
2022/08/04 08:45:36;;;;;;;0.00;0.00;;;29.80;99.90;;;;;;5017591;28;20447;-66
2022/08/04 08:48:18;;;;;;;0.00;0.00;;;30.10;99.90;;;;;;5018191;28;20456;-66
2022/08/04 08:51:11;;;;;;;0.00;0.00;;;30.30;99.90;;;;;;5017639;28;20540;-66
2022/08/04 08:53:58;;;;;;;0.00;0.00;;;30.30;99.90;;;;;;5018403;28;20461;-66
2022/08/04 08:56:39;;;;;;;0.00;0.00;;;30.30;99.90;;;;;;5017408;28;21016;-65
2022/08/04 08:59:35;;;;;;;0.00;0.00;;;30.40;99.90;;;;;;5016711;28;20723;-66
2022/08/04 09:02:29;;;;;;;0.00;0.00;;;30.40;99.90;;;;;;5017503;28;20432;-65
2022/08/04 09:05:17;;;;;;;0.00;0.00;;;30.40;99.90;;;;;;5011213;28;20464;-65
2022/08/04 09:08:00;;;;;;;0.00;0.00;;;30.40;99.90;;;;;;5017280;28;20465;-65
2022/08/04 09:10:36;;;;;;;0.00;0.00;;;30.60;99.90;;;;;;5017058;28;20437;-67
2022/08/04 09:13:09;;;;;;;0.00;0.00;;;30.70;99.90;;;;;;5017382;28;21168;-66
2022/08/04 09:15:45;;;;;;;0.00;0.00;;;30.80;99.90;;;;;;5017075;28;20844;-66
2022/08/04 09:18:25;;;;;;;0.00;0.00;;;30.90;99.90;;;;;;5017446;28;20464;-66
2022/08/04 09:20:59;;;;;;;0.00;0.00;;;31.10;99.90;;;;;;5017331;28;20436;-66
2022/08/04 09:23:33;;;;;;;0.00;0.00;;;31.20;99.90;;;;;;5017121;28;20445;-66
2022/08/04 09:26:08;;;;;;;0.00;0.00;;;31.30;99.90;;;;;;5017393;28;20911;-66
2022/08/04 09:28:46;;;;;;;0.00;0.00;;;31.40;99.90;;;;;;5017438;28;20460;-66
2022/08/04 09:31:29;;;;;;;0.00;0.00;;;31.40;99.90;;;;;;5017476;28;20443;-66
2022/08/04 09:34:26;;;;;;;0.00;0.00;;;31.60;99.90;;;;;;5017604;28;20425;-67
2022/08/04 09:37:04;;;;;;;0.00;0.00;;;31.60;99.90;;;;;;5017538;28;20448;-66
2022/08/04 09:39:39;;;;;;;0.00;0.00;;;31.60;99.90;;;;;;5017052;28;20464;-67
2022/08/04 09:42:18;;;;;;;0.00;0.00;;;31.70;99.90;;;;;;5017526;28;20448;-67
2022/08/04 09:45:00;;;;;;;0.00;0.00;;;31.80;99.90;;;;;;5017121;28;21009;-67
2022/08/04 09:47:39;;;;;;;0.00;0.00;;;31.80;99.90;;;;;;5017323;28;20534;-67
2022/08/04 09:50:29;;;;;;;0.00;0.00;;;31.90;99.90;;;;;;5019460;28;20582;-67
2022/08/04 09:53:10;;;;;;;0.00;0.00;;;31.90;99.90;;;;;;5020654;28;20782;-67
2022/08/04 09:55:50;;;;;;;0.00;0.00;;;32.00;99.90;;;;;;5020842;28;20784;-67
2022/08/04 09:58:33;;;;;;;0.00;0.00;;;32.10;99.90;;;;;;5020390;28;20472;-67
2022/08/04 10:01:06;;;;;;;0.00;0.00;;;32.20;99.90;;;;;;5020216;28;20435;-67
2022/08/04 10:03:39;;;;;;;0.00;0.00;;;32.10;99.90;;;;;;5020739;28;20499;-67
2022/08/04 10:06:17;;;;;;;0.00;0.00;;;32.20;99.90;;;;;;5020844;28;20447;-68
2022/08/04 10:08:58;;;;;;;0.00;0.00;;;32.20;99.90;;;;;;5021124;28;20604;-67
2022/08/04 10:11:37;;;;;;;0.00;0.00;;;32.20;99.90;;;;;;5020533;28;20609;-67
2022/08/04 10:14:38;;;;;;;0.00;0.00;;;32.20;99.90;;;;;;5020329;28;20699;-66
2022/08/04 10:17:21;;;;;;;0.00;0.00;;;32.20;99.90;;;;;;5020288;28;20908;-67
2022/08/04 10:20:03;;;;;;;0.00;0.00;;;32.20;99.90;;;;;;5020029;28;20502;-66
2022/08/04 10:22:37;;;;;;;0.00;0.00;;;32.50;99.90;;;;;;5019616;28;21014;-68
2022/08/04 10:25:38;;;;;;;0.00;0.00;;;32.70;99.90;;;;;;5020006;28;20432;-67
2022/08/04 10:28:30;;;;;;;0.00;0.00;;;32.80;99.90;;;;;;5020372;28;20448;-68
2022/08/04 10:31:04;;;;;;;0.00;0.00;;;32.90;99.90;;;;;;5021607;28;21138;-68
2022/08/04 10:33:41;;;;;;;0.00;0.00;;;33.20;99.90;;;;;;5022703;28;20475;-68
2022/08/04 10:36:16;;;;;;;0.00;0.00;;;33.40;99.90;;;;;;5020026;28;20534;-66
2022/08/04 10:38:52;;;;;;;0.00;0.00;;;33.40;99.90;;;;;;5019881;28;20452;-66
2022/08/04 10:41:27;;;;;;;0.00;0.00;;;33.40;99.90;;;;;;5019633;28;20728;-67
2022/08/04 10:44:05;;;;;;;0.00;0.00;;;33.60;99.90;;;;;;5019833;28;20615;-66
2022/08/04 10:46:40;;;;;;;0.00;0.00;;;33.60;99.90;;;;;;5019746;28;20612;-66
2022/08/04 10:49:09;;;;;;;0.00;0.00;;;33.80;99.90;;;;;;5019580;28;20535;-68
2022/08/04 10:51:45;;;;;;;0.00;0.00;;;33.90;99.90;;;;;;5019516;28;20456;-68
2022/08/04 10:54:31;;;;;;;0.00;0.00;;;33.90;99.90;;;;;;5019796;28;20594;-68
2022/08/04 10:57:12;;;;;;;0.00;0.00;;;33.90;99.80;;;;;;5019891;28;20444;-68
2022/08/04 10:59:49;;;;;;;0.00;0.00;;;33.80;99.60;;;;;;5019137;28;20445;-66
2022/08/04 11:02:29;;;;;;;0.00;0.00;;;33.80;99.80;;;;;;5019542;28;20459;-67
2022/08/04 11:05:06;;;;;;;0.00;0.00;;;33.80;99.90;;;;;;5020381;28;20441;-67
2022/08/04 11:07:38;;;;;;;0.00;0.00;;;33.80;99.50;;;;;;5019831;28;20467;-67
2022/08/04 11:10:09;;;;;;;0.00;0.00;;;33.70;99.40;;;;;;5019644;28;20594;-67
2022/08/04 11:12:40;;;;;;;0.00;0.00;;;33.60;99.30;;;;;;5019534;28;20536;-67
2022/08/04 11:15:13;;;;;;;0.00;0.00;;;33.60;99.20;;;;;;5019750;28;20436;-67
2022/08/04 11:17:46;;;;;;;0.00;0.00;;;33.50;99.20;;;;;;5019195;28;20461;-67
2022/08/04 11:20:20;;;;;;;0.00;0.00;;;33.60;98.80;;;;;;5018882;28;20441;-67
2022/08/04 11:23:08;;;;;;;0.00;0.00;;;33.60;98.70;;;;;;5018795;28;20629;-67
2022/08/04 11:25:48;;;;;;;0.00;0.00;;;33.60;98.60;;;;;;5018618;28;20444;-66
2022/08/04 11:28:28;;;;;;;0.00;0.00;;;33.60;98.20;;;;;;5019063;28;20718;-66
2022/08/04 11:31:04;;;;;;;0.00;0.00;;;33.60;98.20;;;;;;5020104;28;20441;-66
2022/08/04 11:33:37;;;;;;;0.00;0.00;;;33.40;97.60;;;;;;5018655;28;20485;-67
2022/08/04 11:36:14;;;;;;;0.00;0.00;;;33.50;97.80;;;;;;5018738;28;21012;-67
2022/08/04 11:38:50;;;;;;;0.00;0.00;;;33.60;98.00;;;;;;5018466;28;20602;-67
2022/08/04 11:41:22;;;;;;;0.00;0.00;;;33.70;97.40;;;;;;5018703;28;20563;-67
2022/08/04 11:43:57;;;;;;;0.00;0.00;;;33.80;96.90;;;;;;5018501;28;20529;-67
2022/08/04 11:46:36;;;;;;;0.00;0.00;;;33.90;97.40;;;;;;5018561;28;20445;-66
2022/08/04 11:49:10;;;;;;;0.00;0.00;;;34.10;96.70;;;;;;5018455;28;20467;-66
2022/08/04 11:51:39;;;;;;;0.00;0.00;;;34.30;97.10;;;;;;5018404;28;20448;-66
2022/08/04 11:54:09;;;;;;;0.00;0.00;;;34.50;97.00;;;;;;5017857;28;20487;-66
2022/08/04 11:56:36;;;;;;;0.00;0.00;;;34.60;96.60;;;;;;5018388;28;20947;-66
2022/08/04 11:59:07;;;;;;;0.00;0.00;;;34.80;96.20;;;;;;5017818;28;20618;-66
2022/08/04 12:01:45;;;;;;;0.00;0.00;;;35.00;95.20;;;;;;5018168;28;20461;-66
2022/08/04 12:04:23;;;;;;;0.00;0.00;;;35.00;94.90;;;;;;5018369;28;20523;-68
2022/08/04 12:06:56;;;;;;;0.00;0.00;;;35.10;95.20;;;;;;5018422;28;21002;-68
2022/08/04 12:09:52;;;;;;;0.00;0.00;;;35.10;95.70;;;;;;5018125;28;20476;-66
2022/08/04 12:12:26;;;;;;;0.00;0.00;;;35.20;95.80;;;;;;5017634;28;20532;-67
2022/08/04 12:15:02;;;;;;;0.00;0.00;;;35.30;95.30;;;;;;5018063;28;20509;-67
2022/08/04 12:17:38;;;;;;;0.00;0.00;;;35.20;95.60;;;;;;5018188;28;20495;-67
2022/08/04 12:20:24;;;;;;;0.00;0.00;;;35.30;94.10;;;;;;5018014;28;20453;-68
2022/08/04 12:23:04;;;;;;;0.00;0.00;;;35.40;93.90;;;;;;5017876;28;20720;-67
2022/08/04 12:25:40;;;;;;;0.00;0.00;;;35.60;93.90;;;;;;5017792;28;20532;-67
2022/08/04 12:28:18;;;;;;;0.00;0.00;;;35.60;92.80;;;;;;5017748;28;20784;-67
2022/08/04 12:30:51;;;;;;;0.00;0.00;;;35.60;93.20;;;;;;5017844;28;20826;-66
2022/08/04 12:33:35;;;;;;;0.00;0.00;;;35.50;92.10;;;;;;5018066;28;20476;-67
2022/08/04 12:36:31;;;;;;;0.00;0.00;;;35.30;92.10;;;;;;5023388;28;20987;-67
2022/08/04 12:39:06;;;;;;;0.00;0.00;;;35.30;92.10;;;;;;5019529;28;20538;-66
2022/08/04 12:41:40;;;;;;;0.00;0.00;;;35.20;91.40;;;;;;5017846;28;20526;-67
2022/08/04 12:44:12;;;;;;;0.00;0.00;;;35.30;91.70;;;;;;5017634;28;20444;-67
2022/08/04 12:47:02;;;;;;;0.00;0.00;;;35.30;91.70;;;;;;5017482;28;20441;-66
2022/08/04 12:49:52;;;;;;;0.00;0.00;;;35.30;91.70;;;;;;5017368;28;20452;-67
2022/08/04 12:52:27;;;;;;;0.00;0.00;;;35.40;91.90;;;;;;5017546;28;21017;-67
2022/08/04 12:55:16;;;;;;;0.00;0.00;;;35.30;91.60;;;;;;5017455;28;20472;-67
2022/08/04 12:57:47;;;;;;;0.00;0.00;;;35.40;91.60;;;;;;5017413;28;20456;-67
2022/08/04 13:00:27;;;;;;;0.00;0.00;;;35.40;91.50;;;;;;5017037;28;20909;-67
2022/08/04 13:03:06;;;;;;;0.00;0.00;;;35.40;91.30;;;;;;5017228;28;20468;-67
2022/08/04 13:05:38;;;;;;;0.00;0.00;;;35.40;91.30;;;;;;5017540;28;20437;-67
2022/08/04 13:08:08;;;;;;;0.00;0.00;;;35.50;91.20;;;;;;5017304;28;20651;-67
2022/08/04 13:10:39;;;;;;;0.00;0.00;;;35.60;90.90;;;;;;5017367;28;20451;-67
2022/08/04 13:13:14;;;;;;;0.00;0.00;;;35.60;91.30;;;;;;5017328;28;20437;-67
2022/08/04 13:15:43;;;;;;;0.00;0.00;;;35.70;91.00;;;;;;5017228;28;20571;-67
2022/08/04 13:18:15;;;;;;;0.00;0.00;;;35.60;90.50;;;;;;5017262;28;20464;-67
2022/08/04 13:20:44;;;;;;;0.00;0.00;;;35.60;90.60;;;;;;5016929;28;20483;-67
2022/08/04 13:23:14;;;;;;;0.00;0.00;;;35.40;90.40;;;;;;5018185;28;20503;-67
2022/08/04 13:25:51;;;;;;;0.00;0.00;;;35.40;90.80;;;;;;5020648;28;20458;-67
2022/08/04 13:28:42;;;;;;;0.00;0.00;;;35.50;90.80;;;;;;5021023;28;20460;-67
2022/08/04 13:31:13;;;;;;;0.00;0.00;;;35.60;90.90;;;;;;5021123;28;20528;-66
2022/08/04 13:33:47;;;;;;;0.00;0.00;;;35.60;90.70;;;;;;5021143;28;20448;-67
2022/08/04 13:36:16;;;;;;;0.00;0.00;;;35.40;90.30;;;;;;5020884;28;20447;-67
2022/08/04 13:38:49;;;;;;;0.00;0.00;;;35.20;90.60;;;;;;5021069;28;20973;-67
2022/08/04 13:41:18;;;;;;;0.00;0.00;;;35.20;91.00;;;;;;5020805;28;20441;-67
2022/08/04 13:43:50;;;;;;;0.00;0.00;;;35.20;90.90;;;;;;5021254;28;20437;-67
2022/08/04 13:46:44;;;;;;;0.00;0.00;;;35.10;90.90;;;;;;5020826;28;20437;-67
2022/08/04 13:49:19;;;;;;;0.00;0.00;;;35.00;90.90;;;;;;5020733;28;20464;-67
2022/08/04 13:52:09;;;;;;;0.00;0.00;;;34.90;90.70;;;;;;5021254;28;20448;-67
2022/08/04 13:54:42;;;;;;;0.00;0.00;;;34.70;90.70;;;;;;5020811;28;20889;-67
2022/08/04 13:57:14;;;;;;;0.00;0.00;;;34.60;90.80;;;;;;5020221;28;20506;-67